sensor_id;sensor_type;location;lat;lon;timestamp;temperature;humidity
58409;DHT22;44202;52.730;6.470;2022-09-09T00:00:32;13.70;99.90
58409;DHT22;44202;52.730;6.470;2022-09-09T00:03:12;13.70;99.90
58409;DHT22;44202;52.730;6.470;2022-09-09T00:05:58;13.60;99.90
58409;DHT22;44202;52.730;6.470;2022-09-09T00:08:45;13.60;99.90
58409;DHT22;44202;52.730;6.470;2022-09-09T00:12:06;13.60;99.90
58409;DHT22;44202;52.730;6.470;2022-09-09T00:16:56;13.60;99.90
58409;DHT22;44202;52.730;6.470;2022-09-09T00:19:33;13.60;99.90
58409;DHT22;44202;52.730;6.470;2022-09-09T00:22:19;13.60;99.90
58409;DHT22;44202;52.730;6.470;2022-09-09T00:24:53;13.60;99.90
58409;DHT22;44202;52.730;6.470;2022-09-09T00:27:28;13.60;99.90
58409;DHT22;44202;52.730;6.470;2022-09-09T00:30:12;13.70;99.90
58409;DHT22;44202;52.730;6.470;2022-09-09T00:32:37;13.70;99.90
58409;DHT22;44202;52.730;6.470;2022-09-09T00:37:42;13.80;99.90
58409;DHT22;44202;52.730;6.470;2022-09-09T00:40:33;13.90;99.90
58409;DHT22;44202;52.730;6.470;2022-09-09T00:43:31;14.00;99.90
58409;DHT22;44202;52.730;6.470;2022-09-09T00:52:17;14.10;99.90
58409;DHT22;44202;52.730;6.470;2022-09-09T00:57:34;14.20;99.90
58409;DHT22;44202;52.730;6.470;2022-09-09T01:05:33;14.20;99.90
58409;DHT22;44202;52.730;6.470;2022-09-09T01:08:02;14.20;99.90
58409;DHT22;44202;52.730;6.470;2022-09-09T01:10:50;14.10;99.90
58409;DHT22;44202;52.730;6.470;2022-09-09T01:13:27;14.10;99.90
58409;DHT22;44202;52.730;6.470;2022-09-09T01:15:58;14.20;99.90
58409;DHT22;44202;52.730;6.470;2022-09-09T01:18:32;14.20;99.90
58409;DHT22;44202;52.730;6.470;2022-09-09T01:24:19;14.20;99.90
58409;DHT22;44202;52.730;6.470;2022-09-09T01:26:47;14.20;99.90
58409;DHT22;44202;52.730;6.470;2022-09-09T01:29:16;14.10;99.90
58409;DHT22;44202;52.730;6.470;2022-09-09T01:31:55;14.10;99.90
58409;DHT22;44202;52.730;6.470;2022-09-09T01:34:23;14.10;99.90
58409;DHT22;44202;52.730;6.470;2022-09-09T01:39:18;14.00;99.90
58409;DHT22;44202;52.730;6.470;2022-09-09T01:41:44;14.10;99.90
58409;DHT22;44202;52.730;6.470;2022-09-09T01:44:11;14.10;99.90
58409;DHT22;44202;52.730;6.470;2022-09-09T01:46:37;14.10;99.90
58409;DHT22;44202;52.730;6.470;2022-09-09T01:49:05;14.20;99.90
58409;DHT22;44202;52.730;6.470;2022-09-09T01:51:33;14.20;99.90
58409;DHT22;44202;52.730;6.470;2022-09-09T01:53:59;14.20;99.90
58409;DHT22;44202;52.730;6.470;2022-09-09T01:56:46;14.30;99.90
58409;DHT22;44202;52.730;6.470;2022-09-09T01:59:28;14.30;99.90
58409;DHT22;44202;52.730;6.470;2022-09-09T02:02:17;14.30;99.90
58409;DHT22;44202;52.730;6.470;2022-09-09T02:04:47;14.30;99.90
58409;DHT22;44202;52.730;6.470;2022-09-09T02:09:55;14.40;99.90
58409;DHT22;44202;52.730;6.470;2022-09-09T02:12:24;14.30;99.90
58409;DHT22;44202;52.730;6.470;2022-09-09T02:15:05;14.30;99.90
58409;DHT22;44202;52.730;6.470;2022-09-09T02:17:36;14.30;99.90
58409;DHT22;44202;52.730;6.470;2022-09-09T02:20:12;14.30;99.90
58409;DHT22;44202;52.730;6.470;2022-09-09T02:22:42;14.30;99.90
58409;DHT22;44202;52.730;6.470;2022-09-09T02:25:12;14.30;99.90
58409;DHT22;44202;52.730;6.470;2022-09-09T02:27:41;14.30;99.90
58409;DHT22;44202;52.730;6.470;2022-09-09T02:30:09;14.30;99.90
58409;DHT22;44202;52.730;6.470;2022-09-09T02:32:37;14.30;99.90
58409;DHT22;44202;52.730;6.470;2022-09-09T02:35:11;14.30;99.90
58409;DHT22;44202;52.730;6.470;2022-09-09T02:37:39;14.30;99.90
58409;DHT22;44202;52.730;6.470;2022-09-09T02:40:07;14.20;99.90
58409;DHT22;44202;52.730;6.470;2022-09-09T02:42:44;14.30;99.90
58409;DHT22;44202;52.730;6.470;2022-09-09T02:45:14;14.20;99.90
58409;DHT22;44202;52.730;6.470;2022-09-09T02:47:50;14.20;99.90
58409;DHT22;44202;52.730;6.470;2022-09-09T02:50:29;14.20;99.90
58409;DHT22;44202;52.730;6.470;2022-09-09T02:53:17;14.20;99.90
58409;DHT22;44202;52.730;6.470;2022-09-09T02:56:05;14.10;99.90
58409;DHT22;44202;52.730;6.470;2022-09-09T02:58:34;14.10;99.90
58409;DHT22;44202;52.730;6.470;2022-09-09T03:01:00;14.20;99.90
58409;DHT22;44202;52.730;6.470;2022-09-09T03:03:28;14.20;99.90
58409;DHT22;44202;52.730;6.470;2022-09-09T03:05:55;14.20;99.90
58409;DHT22;44202;52.730;6.470;2022-09-09T03:08:22;14.20;99.90
58409;DHT22;44202;52.730;6.470;2022-09-09T03:10:48;14.20;99.90
58409;DHT22;44202;52.730;6.470;2022-09-09T03:13:14;14.20;99.90
58409;DHT22;44202;52.730;6.470;2022-09-09T03:15:41;14.20;99.90
58409;DHT22;44202;52.730;6.470;2022-09-09T03:18:07;14.20;99.90
58409;DHT22;44202;52.730;6.470;2022-09-09T03:20:32;14.20;99.90
58409;DHT22;44202;52.730;6.470;2022-09-09T03:22:59;14.20;99.90
58409;DHT22;44202;52.730;6.470;2022-09-09T03:25:26;14.20;99.90
58409;DHT22;44202;52.730;6.470;2022-09-09T03:27:52;14.20;99.90
58409;DHT22;44202;52.730;6.470;2022-09-09T03:30:24;14.20;99.90
58409;DHT22;44202;52.730;6.470;2022-09-09T03:32:51;14.20;99.90
58409;DHT22;44202;52.730;6.470;2022-09-09T03:35:17;14.20;99.90
58409;DHT22;44202;52.730;6.470;2022-09-09T03:37:42;14.20;99.90
58409;DHT22;44202;52.730;6.470;2022-09-09T03:40:09;14.20;99.90
58409;DHT22;44202;52.730;6.470;2022-09-09T03:42:36;14.10;99.90
58409;DHT22;44202;52.730;6.470;2022-09-09T03:45:06;14.10;99.90
58409;DHT22;44202;52.730;6.470;2022-09-09T03:47:33;14.10;99.90
58409;DHT22;44202;52.730;6.470;2022-09-09T03:49:59;14.10;99.90
58409;DHT22;44202;52.730;6.470;2022-09-09T03:52:24;14.10;99.90
58409;DHT22;44202;52.730;6.470;2022-09-09T03:54:52;14.10;99.90
58409;DHT22;44202;52.730;6.470;2022-09-09T03:57:18;14.10;99.90
58409;DHT22;44202;52.730;6.470;2022-09-09T03:59:44;14.00;99.90
58409;DHT22;44202;52.730;6.470;2022-09-09T04:02:10;14.00;99.90
58409;DHT22;44202;52.730;6.470;2022-09-09T04:04:35;14.00;99.90
58409;DHT22;44202;52.730;6.470;2022-09-09T04:07:01;14.00;99.90
58409;DHT22;44202;52.730;6.470;2022-09-09T04:09:27;14.00;99.90
58409;DHT22;44202;52.730;6.470;2022-09-09T04:11:53;13.90;99.90
58409;DHT22;44202;52.730;6.470;2022-09-09T04:14:20;13.90;99.90
58409;DHT22;44202;52.730;6.470;2022-09-09T04:16:46;13.90;99.90
58409;DHT22;44202;52.730;6.470;2022-09-09T04:19:13;13.90;99.90
58409;DHT22;44202;52.730;6.470;2022-09-09T04:21:40;13.90;99.90
58409;DHT22;44202;52.730;6.470;2022-09-09T04:24:08;13.80;99.90
58409;DHT22;44202;52.730;6.470;2022-09-09T04:26:34;13.80;99.90
58409;DHT22;44202;52.730;6.470;2022-09-09T04:29:02;13.80;99.90
58409;DHT22;44202;52.730;6.470;2022-09-09T04:31:31;13.80;99.90
58409;DHT22;44202;52.730;6.470;2022-09-09T04:33:56;13.80;99.90
58409;DHT22;44202;52.730;6.470;2022-09-09T04:36:22;13.80;99.90
58409;DHT22;44202;52.730;6.470;2022-09-09T04:38:48;13.80;99.90
58409;DHT22;44202;52.730;6.470;2022-09-09T04:41:15;13.70;99.90
58409;DHT22;44202;52.730;6.470;2022-09-09T04:43:42;13.70;99.90
58409;DHT22;44202;52.730;6.470;2022-09-09T04:46:08;13.60;99.90
58409;DHT22;44202;52.730;6.470;2022-09-09T04:48:34;13.70;99.90
58409;DHT22;44202;52.730;6.470;2022-09-09T04:51:04;13.60;99.90
58409;DHT22;44202;52.730;6.470;2022-09-09T04:53:33;13.60;99.90
58409;DHT22;44202;52.730;6.470;2022-09-09T04:56:14;13.60;99.90
58409;DHT22;44202;52.730;6.470;2022-09-09T04:58:41;13.50;99.90
58409;DHT22;44202;52.730;6.470;2022-09-09T05:01:12;13.50;99.90
58409;DHT22;44202;52.730;6.470;2022-09-09T05:03:38;13.50;99.90
58409;DHT22;44202;52.730;6.470;2022-09-09T05:06:06;13.50;99.90
58409;DHT22;44202;52.730;6.470;2022-09-09T05:08:32;13.40;99.90
58409;DHT22;44202;52.730;6.470;2022-09-09T05:10:58;13.40;99.90
58409;DHT22;44202;52.730;6.470;2022-09-09T05:13:26;13.40;99.90
58409;DHT22;44202;52.730;6.470;2022-09-09T05:15:53;13.40;99.90
58409;DHT22;44202;52.730;6.470;2022-09-09T05:18:18;13.30;99.90
58409;DHT22;44202;52.730;6.470;2022-09-09T05:20:44;13.30;99.90
58409;DHT22;44202;52.730;6.470;2022-09-09T05:23:10;13.30;99.90
58409;DHT22;44202;52.730;6.470;2022-09-09T05:25:37;13.30;99.90
58409;DHT22;44202;52.730;6.470;2022-09-09T05:28:03;13.20;99.90
58409;DHT22;44202;52.730;6.470;2022-09-09T05:30:28;13.30;99.90
58409;DHT22;44202;52.730;6.470;2022-09-09T05:32:57;13.30;99.90
58409;DHT22;44202;52.730;6.470;2022-09-09T05:35:23;13.30;99.90
58409;DHT22;44202;52.730;6.470;2022-09-09T05:37:48;13.30;99.90
58409;DHT22;44202;52.730;6.470;2022-09-09T05:40:14;13.40;99.90
58409;DHT22;44202;52.730;6.470;2022-09-09T05:42:41;13.50;99.90
58409;DHT22;44202;52.730;6.470;2022-09-09T05:45:08;13.50;99.90
58409;DHT22;44202;52.730;6.470;2022-09-09T05:47:34;13.50;99.90
58409;DHT22;44202;52.730;6.470;2022-09-09T05:50:01;13.60;99.90
58409;DHT22;44202;52.730;6.470;2022-09-09T05:52:26;13.60;99.90
58409;DHT22;44202;52.730;6.470;2022-09-09T05:54:52;13.60;99.90
58409;DHT22;44202;52.730;6.470;2022-09-09T05:57:20;13.70;99.90
58409;DHT22;44202;52.730;6.470;2022-09-09T05:59:46;13.70;99.90
58409;DHT22;44202;52.730;6.470;2022-09-09T06:02:12;13.70;99.90
58409;DHT22;44202;52.730;6.470;2022-09-09T06:04:38;13.70;99.90
58409;DHT22;44202;52.730;6.470;2022-09-09T06:07:05;13.70;99.90
58409;DHT22;44202;52.730;6.470;2022-09-09T06:09:31;13.70;99.90
58409;DHT22;44202;52.730;6.470;2022-09-09T06:11:56;13.70;99.90
58409;DHT22;44202;52.730;6.470;2022-09-09T06:14:24;13.90;99.90
58409;DHT22;44202;52.730;6.470;2022-09-09T06:16:51;13.80;99.90
58409;DHT22;44202;52.730;6.470;2022-09-09T06:19:16;13.80;99.90
58409;DHT22;44202;52.730;6.470;2022-09-09T06:21:42;13.80;99.90
58409;DHT22;44202;52.730;6.470;2022-09-09T06:24:10;13.80;99.90
58409;DHT22;44202;52.730;6.470;2022-09-09T06:26:39;13.90;99.90
58409;DHT22;44202;52.730;6.470;2022-09-09T06:29:08;13.90;99.90
58409;DHT22;44202;52.730;6.470;2022-09-09T06:31:35;13.90;99.90
58409;DHT22;44202;52.730;6.470;2022-09-09T06:34:04;13.90;99.90
58409;DHT22;44202;52.730;6.470;2022-09-09T06:36:32;13.80;99.90
58409;DHT22;44202;52.730;6.470;2022-09-09T06:38:59;13.80;99.90
58409;DHT22;44202;52.730;6.470;2022-09-09T06:41:27;13.80;99.90
58409;DHT22;44202;52.730;6.470;2022-09-09T06:43:54;13.90;99.90
58409;DHT22;44202;52.730;6.470;2022-09-09T06:46:22;13.90;99.90
58409;DHT22;44202;52.730;6.470;2022-09-09T06:48:49;14.00;99.90
58409;DHT22;44202;52.730;6.470;2022-09-09T06:51:17;14.10;99.90
58409;DHT22;44202;52.730;6.470;2022-09-09T06:53:45;14.10;99.90
58409;DHT22;44202;52.730;6.470;2022-09-09T06:58:42;14.10;99.90
58409;DHT22;44202;52.730;6.470;2022-09-09T07:01:13;14.20;99.90
58409;DHT22;44202;52.730;6.470;2022-09-09T07:03:40;14.20;99.90
58409;DHT22;44202;52.730;6.470;2022-09-09T07:06:08;14.20;99.90
58409;DHT22;44202;52.730;6.470;2022-09-09T07:08:34;14.30;99.90
58409;DHT22;44202;52.730;6.470;2022-09-09T07:11:05;14.40;99.90
58409;DHT22;44202;52.730;6.470;2022-09-09T07:13:31;14.40;99.90
58409;DHT22;44202;52.730;6.470;2022-09-09T07:16:08;14.40;99.90
58409;DHT22;44202;52.730;6.470;2022-09-09T07:18:35;14.50;99.90
58409;DHT22;44202;52.730;6.470;2022-09-09T07:21:02;14.60;99.90
58409;DHT22;44202;52.730;6.470;2022-09-09T07:23:29;14.60;99.90
58409;DHT22;44202;52.730;6.470;2022-09-09T07:25:56;14.60;99.90
58409;DHT22;44202;52.730;6.470;2022-09-09T07:28:22;14.70;99.90
58409;DHT22;44202;52.730;6.470;2022-09-09T07:31:00;14.80;99.90
58409;DHT22;44202;52.730;6.470;2022-09-09T07:33:30;14.90;99.90
58409;DHT22;44202;52.730;6.470;2022-09-09T07:36:04;15.10;99.90
58409;DHT22;44202;52.730;6.470;2022-09-09T07:38:30;15.20;99.90
58409;DHT22;44202;52.730;6.470;2022-09-09T07:41:05;15.20;99.90
58409;DHT22;44202;52.730;6.470;2022-09-09T07:43:31;15.30;99.90
58409;DHT22;44202;52.730;6.470;2022-09-09T07:45:59;15.40;99.90
58409;DHT22;44202;52.730;6.470;2022-09-09T07:48:27;15.30;99.90
58409;DHT22;44202;52.730;6.470;2022-09-09T07:51:02;15.40;99.90
58409;DHT22;44202;52.730;6.470;2022-09-09T07:53:28;15.40;99.90
58409;DHT22;44202;52.730;6.470;2022-09-09T07:55:54;15.50;99.90
58409;DHT22;44202;52.730;6.470;2022-09-09T07:58:21;15.50;99.90
58409;DHT22;44202;52.730;6.470;2022-09-09T08:00:47;15.60;99.90
58409;DHT22;44202;52.730;6.470;2022-09-09T08:03:13;15.60;99.90
58409;DHT22;44202;52.730;6.470;2022-09-09T08:05:38;15.70;99.90
58409;DHT22;44202;52.730;6.470;2022-09-09T08:08:05;15.80;99.90
58409;DHT22;44202;52.730;6.470;2022-09-09T08:10:30;15.90;99.90
58409;DHT22;44202;52.730;6.470;2022-09-09T08:12:56;16.00;99.90
58409;DHT22;44202;52.730;6.470;2022-09-09T08:15:22;16.00;99.90
58409;DHT22;44202;52.730;6.470;2022-09-09T08:17:47;16.20;99.90
58409;DHT22;44202;52.730;6.470;2022-09-09T08:20:14;16.20;99.90
58409;DHT22;44202;52.730;6.470;2022-09-09T08:22:40;16.30;99.90
58409;DHT22;44202;52.730;6.470;2022-09-09T08:25:07;16.30;99.90
58409;DHT22;44202;52.730;6.470;2022-09-09T08:27:34;16.40;99.90
58409;DHT22;44202;52.730;6.470;2022-09-09T08:29:59;16.50;99.90
58409;DHT22;44202;52.730;6.470;2022-09-09T08:32:25;16.50;99.90
58409;DHT22;44202;52.730;6.470;2022-09-09T08:34:51;16.50;99.90
58409;DHT22;44202;52.730;6.470;2022-09-09T08:37:17;16.50;99.90
58409;DHT22;44202;52.730;6.470;2022-09-09T08:39:43;16.60;99.90
58409;DHT22;44202;52.730;6.470;2022-09-09T08:42:17;16.70;99.90
58409;DHT22;44202;52.730;6.470;2022-09-09T08:47:54;16.80;99.90
58409;DHT22;44202;52.730;6.470;2022-09-09T08:50:36;17.10;99.90
58409;DHT22;44202;52.730;6.470;2022-09-09T08:53:23;17.10;99.90
58409;DHT22;44202;52.730;6.470;2022-09-09T08:55:54;17.00;99.90
58409;DHT22;44202;52.730;6.470;2022-09-09T08:58:21;17.10;99.90
58409;DHT22;44202;52.730;6.470;2022-09-09T09:11:59;17.90;99.90
58409;DHT22;44202;52.730;6.470;2022-09-09T09:14:29;18.20;99.90
58409;DHT22;44202;52.730;6.470;2022-09-09T09:17:01;18.30;99.90
58409;DHT22;44202;52.730;6.470;2022-09-09T09:19:33;18.20;99.90
58409;DHT22;44202;52.730;6.470;2022-09-09T09:22:23;17.90;99.90
58409;DHT22;44202;52.730;6.470;2022-09-09T09:24:56;18.00;99.90
58409;DHT22;44202;52.730;6.470;2022-09-09T09:30:00;18.30;99.90
58409;DHT22;44202;52.730;6.470;2022-09-09T09:32:30;18.20;99.90
58409;DHT22;44202;52.730;6.470;2022-09-09T09:34:57;18.00;99.90
58409;DHT22;44202;52.730;6.470;2022-09-09T09:37:30;17.80;99.90
58409;DHT22;44202;52.730;6.470;2022-09-09T09:40:18;17.70;99.90
58409;DHT22;44202;52.730;6.470;2022-09-09T09:43:03;17.60;99.90
58409;DHT22;44202;52.730;6.470;2022-09-09T09:45:44;17.50;99.90
58409;DHT22;44202;52.730;6.470;2022-09-09T09:48:14;17.60;99.90
58409;DHT22;44202;52.730;6.470;2022-09-09T09:51:09;17.60;99.90
58409;DHT22;44202;52.730;6.470;2022-09-09T09:53:37;17.70;99.90
58409;DHT22;44202;52.730;6.470;2022-09-09T09:56:11;17.70;99.90
58409;DHT22;44202;52.730;6.470;2022-09-09T10:04:00;18.50;99.90
58409;DHT22;44202;52.730;6.470;2022-09-09T10:06:35;18.80;99.90
58409;DHT22;44202;52.730;6.470;2022-09-09T10:09:03;18.80;99.90
58409;DHT22;44202;52.730;6.470;2022-09-09T10:19:35;18.90;99.90
58409;DHT22;44202;52.730;6.470;2022-09-09T10:22:07;18.90;99.90
58409;DHT22;44202;52.730;6.470;2022-09-09T10:24:58;18.80;99.90
58409;DHT22;44202;52.730;6.470;2022-09-09T10:27:38;18.80;99.90
58409;DHT22;44202;52.730;6.470;2022-09-09T10:32:48;18.80;99.90
58409;DHT22;44202;52.730;6.470;2022-09-09T10:35:30;18.70;99.90
58409;DHT22;44202;52.730;6.470;2022-09-09T10:40:48;18.50;99.90
58409;DHT22;44202;52.730;6.470;2022-09-09T10:55:18;18.20;99.90
58409;DHT22;44202;52.730;6.470;2022-09-09T10:57:44;18.40;99.90
58409;DHT22;44202;52.730;6.470;2022-09-09T11:00:20;18.60;99.90
58409;DHT22;44202;52.730;6.470;2022-09-09T11:02:56;18.70;99.90
58409;DHT22;44202;52.730;6.470;2022-09-09T11:05:30;18.80;99.90
58409;DHT22;44202;52.730;6.470;2022-09-09T11:10:41;18.90;99.90
58409;DHT22;44202;52.730;6.470;2022-09-09T11:13:41;18.70;99.90
58409;DHT22;44202;52.730;6.470;2022-09-09T11:16:22;18.50;99.90
58409;DHT22;44202;52.730;6.470;2022-09-09T11:18:57;18.40;99.90
58409;DHT22;44202;52.730;6.470;2022-09-09T11:21:31;18.20;99.90
58409;DHT22;44202;52.730;6.470;2022-09-09T11:24:10;18.20;99.90
58409;DHT22;44202;52.730;6.470;2022-09-09T11:26:46;18.00;99.90
58409;DHT22;44202;52.730;6.470;2022-09-09T11:34:54;18.10;99.90
58409;DHT22;44202;52.730;6.470;2022-09-09T11:40:23;18.70;99.90
58409;DHT22;44202;52.730;6.470;2022-09-09T11:43:04;19.30;99.90
58409;DHT22;44202;52.730;6.470;2022-09-09T11:45:32;19.80;99.90
58409;DHT22;44202;52.730;6.470;2022-09-09T11:48:00;20.10;99.90
58409;DHT22;44202;52.730;6.470;2022-09-09T11:53:18;20.30;99.90
58409;DHT22;44202;52.730;6.470;2022-09-09T11:55:46;20.60;99.90
58409;DHT22;44202;52.730;6.470;2022-09-09T12:00:48;20.80;99.90
58409;DHT22;44202;52.730;6.470;2022-09-09T12:03:46;20.60;99.90
58409;DHT22;44202;52.730;6.470;2022-09-09T12:06:33;20.30;99.90
58409;DHT22;44202;52.730;6.470;2022-09-09T12:09:22;19.90;99.90
58409;DHT22;44202;52.730;6.470;2022-09-09T12:11:49;19.70;99.90
58409;DHT22;44202;52.730;6.470;2022-09-09T12:14:42;19.60;99.90
58409;DHT22;44202;52.730;6.470;2022-09-09T12:17:22;19.60;99.90
58409;DHT22;44202;52.730;6.470;2022-09-09T12:22:58;20.20;99.90
58409;DHT22;44202;52.730;6.470;2022-09-09T12:28:21;20.30;99.90
58409;DHT22;44202;52.730;6.470;2022-09-09T12:31:12;19.90;99.90
58409;DHT22;44202;52.730;6.470;2022-09-09T12:33:43;19.60;99.90
58409;DHT22;44202;52.730;6.470;2022-09-09T12:36:21;19.60;99.90
58409;DHT22;44202;52.730;6.470;2022-09-09T12:38:48;19.70;99.90
58409;DHT22;44202;52.730;6.470;2022-09-09T12:41:20;20.00;99.90
58409;DHT22;44202;52.730;6.470;2022-09-09T12:43:46;20.30;99.90
58409;DHT22;44202;52.730;6.470;2022-09-09T12:46:41;20.70;99.90
58409;DHT22;44202;52.730;6.470;2022-09-09T12:49:31;21.00;99.90
58409;DHT22;44202;52.730;6.470;2022-09-09T12:54:44;20.60;99.90
58409;DHT22;44202;52.730;6.470;2022-09-09T12:57:14;20.20;99.90
58409;DHT22;44202;52.730;6.470;2022-09-09T12:59:43;19.90;99.90
58409;DHT22;44202;52.730;6.470;2022-09-09T13:02:36;19.80;99.90
58409;DHT22;44202;52.730;6.470;2022-09-09T13:05:19;19.90;99.90
58409;DHT22;44202;52.730;6.470;2022-09-09T13:07:45;20.00;99.90
58409;DHT22;44202;52.730;6.470;2022-09-09T13:10:14;20.10;99.90
58409;DHT22;44202;52.730;6.470;2022-09-09T13:12:41;20.20;99.90
58409;DHT22;44202;52.730;6.470;2022-09-09T13:15:21;20.10;99.90
58409;DHT22;44202;52.730;6.470;2022-09-09T13:17:56;20.10;99.90
58409;DHT22;44202;52.730;6.470;2022-09-09T13:20:23;20.10;99.90
58409;DHT22;44202;52.730;6.470;2022-09-09T13:22:51;20.00;99.90
58409;DHT22;44202;52.730;6.470;2022-09-09T13:27:56;18.90;99.90
58409;DHT22;44202;52.730;6.470;2022-09-09T13:30:33;18.00;99.90
58409;DHT22;44202;52.730;6.470;2022-09-09T13:38:36;17.30;99.90
58409;DHT22;44202;52.730;6.470;2022-09-09T13:41:05;17.30;99.90
58409;DHT22;44202;52.730;6.470;2022-09-09T13:43:44;17.30;99.90
58409;DHT22;44202;52.730;6.470;2022-09-09T13:46:40;17.20;99.90
58409;DHT22;44202;52.730;6.470;2022-09-09T13:51:36;17.10;99.90
58409;DHT22;44202;52.730;6.470;2022-09-09T13:54:06;17.30;99.90
58409;DHT22;44202;52.730;6.470;2022-09-09T13:56:35;17.40;99.90
58409;DHT22;44202;52.730;6.470;2022-09-09T13:59:02;17.50;99.90
58409;DHT22;44202;52.730;6.470;2022-09-09T14:01:31;17.60;99.90
58409;DHT22;44202;52.730;6.470;2022-09-09T14:04:00;17.90;99.90
58409;DHT22;44202;52.730;6.470;2022-09-09T14:06:29;18.00;99.90
58409;DHT22;44202;52.730;6.470;2022-09-09T14:08:55;17.70;99.90
58409;DHT22;44202;52.730;6.470;2022-09-09T14:11:23;17.60;99.90
58409;DHT22;44202;52.730;6.470;2022-09-09T14:13:49;17.50;99.90
58409;DHT22;44202;52.730;6.470;2022-09-09T14:16:16;17.50;99.90
58409;DHT22;44202;52.730;6.470;2022-09-09T14:18:43;17.50;99.90
58409;DHT22;44202;52.730;6.470;2022-09-09T14:21:09;17.80;99.90
58409;DHT22;44202;52.730;6.470;2022-09-09T14:23:36;18.10;99.90
58409;DHT22;44202;52.730;6.470;2022-09-09T14:26:04;18.30;99.90
58409;DHT22;44202;52.730;6.470;2022-09-09T14:28:31;18.10;99.90
58409;DHT22;44202;52.730;6.470;2022-09-09T14:31:00;18.00;99.90
58409;DHT22;44202;52.730;6.470;2022-09-09T14:33:30;17.80;99.90
58409;DHT22;44202;52.730;6.470;2022-09-09T14:36:00;17.80;99.90
58409;DHT22;44202;52.730;6.470;2022-09-09T14:38:32;17.80;99.90
58409;DHT22;44202;52.730;6.470;2022-09-09T14:40:59;17.90;99.90
58409;DHT22;44202;52.730;6.470;2022-09-09T14:43:25;18.10;99.90
58409;DHT22;44202;52.730;6.470;2022-09-09T14:45:52;18.20;99.90
58409;DHT22;44202;52.730;6.470;2022-09-09T14:48:18;18.20;99.90
58409;DHT22;44202;52.730;6.470;2022-09-09T14:50:47;18.30;99.90
58409;DHT22;44202;52.730;6.470;2022-09-09T14:53:13;18.20;99.90
58409;DHT22;44202;52.730;6.470;2022-09-09T14:55:42;18.20;99.90
58409;DHT22;44202;52.730;6.470;2022-09-09T14:58:08;18.10;99.90
58409;DHT22;44202;52.730;6.470;2022-09-09T15:00:34;18.00;99.90
58409;DHT22;44202;52.730;6.470;2022-09-09T15:03:02;18.00;99.90
58409;DHT22;44202;52.730;6.470;2022-09-09T15:05:31;18.00;99.90
58409;DHT22;44202;52.730;6.470;2022-09-09T15:07:57;18.10;99.90
58409;DHT22;44202;52.730;6.470;2022-09-09T15:10:24;18.20;99.90
58409;DHT22;44202;52.730;6.470;2022-09-09T15:12:51;18.10;99.90
58409;DHT22;44202;52.730;6.470;2022-09-09T15:15:17;18.10;99.90
58409;DHT22;44202;52.730;6.470;2022-09-09T15:17:43;18.10;99.90
58409;DHT22;44202;52.730;6.470;2022-09-09T15:20:09;18.10;99.90
58409;DHT22;44202;52.730;6.470;2022-09-09T15:22:35;18.00;99.90
58409;DHT22;44202;52.730;6.470;2022-09-09T15:25:02;17.90;99.90
58409;DHT22;44202;52.730;6.470;2022-09-09T15:27:27;17.80;99.90
58409;DHT22;44202;52.730;6.470;2022-09-09T15:29:56;17.70;99.90
58409;DHT22;44202;52.730;6.470;2022-09-09T15:32:23;17.60;99.90
58409;DHT22;44202;52.730;6.470;2022-09-09T15:34:49;17.60;99.90
58409;DHT22;44202;52.730;6.470;2022-09-09T15:37:16;17.50;99.90
58409;DHT22;44202;52.730;6.470;2022-09-09T15:39:42;17.40;99.90
58409;DHT22;44202;52.730;6.470;2022-09-09T15:42:08;17.40;99.90
58409;DHT22;44202;52.730;6.470;2022-09-09T15:44:41;17.50;99.90
58409;DHT22;44202;52.730;6.470;2022-09-09T15:47:09;17.70;99.90
58409;DHT22;44202;52.730;6.470;2022-09-09T15:49:35;18.00;99.90
58409;DHT22;44202;52.730;6.470;2022-09-09T15:52:01;18.40;99.90
58409;DHT22;44202;52.730;6.470;2022-09-09T15:54:32;18.60;99.90
58409;DHT22;44202;52.730;6.470;2022-09-09T15:57:01;18.70;99.90
58409;DHT22;44202;52.730;6.470;2022-09-09T15:59:28;18.70;99.90
58409;DHT22;44202;52.730;6.470;2022-09-09T16:01:55;18.50;99.90
58409;DHT22;44202;52.730;6.470;2022-09-09T16:04:22;18.40;99.90
58409;DHT22;44202;52.730;6.470;2022-09-09T16:06:53;18.30;99.90
58409;DHT22;44202;52.730;6.470;2022-09-09T16:09:19;18.30;99.90
58409;DHT22;44202;52.730;6.470;2022-09-09T16:11:45;18.20;99.90
58409;DHT22;44202;52.730;6.470;2022-09-09T16:14:13;18.20;99.90
58409;DHT22;44202;52.730;6.470;2022-09-09T16:16:38;18.30;99.90
58409;DHT22;44202;52.730;6.470;2022-09-09T16:19:09;18.20;99.90
58409;DHT22;44202;52.730;6.470;2022-09-09T16:21:43;18.20;99.90
58409;DHT22;44202;52.730;6.470;2022-09-09T16:24:12;18.20;99.90
58409;DHT22;44202;52.730;6.470;2022-09-09T16:26:40;18.10;99.90
58409;DHT22;44202;52.730;6.470;2022-09-09T16:29:06;18.10;99.90
58409;DHT22;44202;52.730;6.470;2022-09-09T16:31:32;18.00;99.90
58409;DHT22;44202;52.730;6.470;2022-09-09T16:33:58;18.00;99.90
58409;DHT22;44202;52.730;6.470;2022-09-09T16:36:29;18.00;99.90
58409;DHT22;44202;52.730;6.470;2022-09-09T16:39:01;17.90;99.90
58409;DHT22;44202;52.730;6.470;2022-09-09T16:41:28;17.90;99.90
58409;DHT22;44202;52.730;6.470;2022-09-09T16:43:59;17.90;99.90
58409;DHT22;44202;52.730;6.470;2022-09-09T16:46:27;17.90;99.90
58409;DHT22;44202;52.730;6.470;2022-09-09T16:48:56;17.90;99.90
58409;DHT22;44202;52.730;6.470;2022-09-09T16:51:29;17.80;99.90
58409;DHT22;44202;52.730;6.470;2022-09-09T16:53:58;17.80;99.90
58409;DHT22;44202;52.730;6.470;2022-09-09T16:56:27;17.80;99.90
58409;DHT22;44202;52.730;6.470;2022-09-09T16:58:58;17.80;99.90
58409;DHT22;44202;52.730;6.470;2022-09-09T17:01:26;17.70;99.90
58409;DHT22;44202;52.730;6.470;2022-09-09T17:03:56;17.70;99.90
58409;DHT22;44202;52.730;6.470;2022-09-09T17:06:22;17.70;99.90
58409;DHT22;44202;52.730;6.470;2022-09-09T17:08:57;17.60;99.90
58409;DHT22;44202;52.730;6.470;2022-09-09T17:11:23;17.60;99.90
58409;DHT22;44202;52.730;6.470;2022-09-09T17:13:49;17.60;99.90
58409;DHT22;44202;52.730;6.470;2022-09-09T17:16:17;17.50;99.90
58409;DHT22;44202;52.730;6.470;2022-09-09T17:18:43;17.50;99.90
58409;DHT22;44202;52.730;6.470;2022-09-09T17:21:12;17.50;99.90
58409;DHT22;44202;52.730;6.470;2022-09-09T17:23:39;17.50;99.90
58409;DHT22;44202;52.730;6.470;2022-09-09T17:26:06;17.50;99.90
58409;DHT22;44202;52.730;6.470;2022-09-09T17:28:39;17.50;99.90
58409;DHT22;44202;52.730;6.470;2022-09-09T17:31:07;17.50;99.90
58409;DHT22;44202;52.730;6.470;2022-09-09T17:33:35;17.40;99.90
58409;DHT22;44202;52.730;6.470;2022-09-09T17:36:07;17.40;99.90
58409;DHT22;44202;52.730;6.470;2022-09-09T17:38:33;17.40;99.90
58409;DHT22;44202;52.730;6.470;2022-09-09T17:43:28;17.40;99.90
58409;DHT22;44202;52.730;6.470;2022-09-09T17:45:54;17.40;99.90